createdAt,value
2023-04-26T00:00:35.499Z,4.10
2023-04-26T00:03:02.438Z,4.16
2023-04-26T00:05:30.010Z,4.06
2023-04-26T00:07:56.890Z,4.02
2023-04-26T00:10:23.630Z,4.13
2023-04-26T00:12:50.653Z,4.12
2023-04-26T00:15:17.493Z,4.07
2023-04-26T00:17:44.599Z,4.14
2023-04-26T00:20:13.541Z,3.98
2023-04-26T00:22:40.914Z,3.95
2023-04-26T00:25:07.955Z,3.93
2023-04-26T00:27:34.691Z,4.01
2023-04-26T00:30:01.438Z,4.03
2023-04-26T00:32:28.095Z,3.98
2023-04-26T00:34:54.746Z,3.94
2023-04-26T00:37:22.015Z,3.96
2023-04-26T00:39:49.324Z,4.01
2023-04-26T00:42:16.254Z,3.86
2023-04-26T00:44:43.692Z,3.90
2023-04-26T00:47:10.692Z,3.82
2023-04-26T00:49:37.507Z,3.90
2023-04-26T00:52:04.413Z,3.73
2023-04-26T00:54:31.568Z,3.82
2023-04-26T00:56:58.215Z,3.98
2023-04-26T00:59:26.424Z,3.85
2023-04-26T01:01:53.350Z,3.93
2023-04-26T01:04:20.417Z,3.85
2023-04-26T01:06:47.879Z,3.68
2023-04-26T01:09:15.713Z,3.79
2023-04-26T01:11:44.237Z,3.72
2023-04-26T01:14:11.810Z,3.62
2023-04-26T01:16:39.526Z,3.56
2023-04-26T01:19:13.827Z,3.62
2023-04-26T01:21:41.649Z,3.57
2023-04-26T01:24:12.932Z,3.69
2023-04-26T01:26:44.452Z,3.57
2023-04-26T01:29:18.709Z,3.47
2023-04-26T01:31:46.824Z,3.58
2023-04-26T01:34:14.266Z,3.63
2023-04-26T01:36:41.298Z,3.53
2023-04-26T01:39:09.629Z,3.44
2023-04-26T01:41:36.837Z,3.42
2023-04-26T01:44:03.964Z,3.47
2023-04-26T01:46:30.842Z,3.52
2023-04-26T01:48:57.832Z,3.49
2023-04-26T01:51:24.445Z,3.35
2023-04-26T01:53:51.576Z,3.41
2023-04-26T01:56:19.281Z,3.38
2023-04-26T01:58:46.174Z,3.29
2023-04-26T02:01:13.111Z,3.41
2023-04-26T02:03:39.795Z,3.29
2023-04-26T02:06:06.527Z,3.31
2023-04-26T02:08:33.580Z,3.22
2023-04-26T02:11:00.640Z,3.20
2023-04-26T02:13:27.361Z,3.21
2023-04-26T02:15:54.096Z,3.14
2023-04-26T02:18:22.620Z,3.21
2023-04-26T02:20:49.462Z,3.29
2023-04-26T02:23:16.733Z,3.19
2023-04-26T02:25:46.878Z,3.17
2023-04-26T02:28:13.828Z,3.21
2023-04-26T02:30:40.774Z,3.04
2023-04-26T02:33:07.722Z,3.04
2023-04-26T02:35:36.354Z,2.94
2023-04-26T02:38:03.854Z,2.90
2023-04-26T02:40:30.653Z,3.04
2023-04-26T02:42:57.685Z,3.12
2023-04-26T02:45:24.588Z,2.97
2023-04-26T02:47:51.666Z,2.96
2023-04-26T02:50:18.480Z,3.02
2023-04-26T02:52:45.313Z,2.95
2023-04-26T02:55:12.088Z,2.98
2023-04-26T02:57:39.657Z,2.97
2023-04-26T03:00:08.060Z,2.99
2023-04-26T03:02:35.200Z,2.82
2023-04-26T03:05:02.445Z,2.88
2023-04-26T03:07:29.137Z,2.79
2023-04-26T03:09:55.739Z,2.72
2023-04-26T03:12:22.394Z,2.72
2023-04-26T03:14:49.468Z,2.61
2023-04-26T03:17:16.607Z,2.70
2023-04-26T03:19:43.343Z,2.67
2023-04-26T03:22:11.743Z,2.80
2023-04-26T03:24:38.318Z,2.76
2023-04-26T03:27:05.122Z,2.69
2023-04-26T03:29:32.167Z,2.68
2023-04-26T03:31:58.801Z,2.81
2023-04-26T03:34:25.569Z,2.70
2023-04-26T03:36:52.165Z,2.85
2023-04-26T03:39:18.897Z,2.80
2023-04-26T03:41:46.146Z,2.70
2023-04-26T03:44:13.231Z,2.78
2023-04-26T03:46:39.872Z,2.58
2023-04-26T03:49:06.652Z,2.77
2023-04-26T03:51:33.515Z,2.79
2023-04-26T03:54:00.154Z,2.62
2023-04-26T03:56:26.748Z,2.70
2023-04-26T03:58:53.943Z,2.62
2023-04-26T04:01:20.780Z,2.80
2023-04-26T04:03:48.696Z,2.66
2023-04-26T04:06:16.814Z,2.73
2023-04-26T04:08:43.429Z,2.91
2023-04-26T04:11:10.058Z,2.88
2023-04-26T04:13:36.693Z,2.90
2023-04-26T04:16:04.731Z,2.79
2023-04-26T04:18:31.372Z,2.84
2023-04-26T04:20:58.158Z,2.82
2023-04-26T04:23:24.757Z,2.74
2023-04-26T04:25:52.358Z,2.76
2023-04-26T04:28:19.012Z,3.00
2023-04-26T04:30:46.532Z,3.00
2023-04-26T04:33:13.128Z,2.99
2023-04-26T04:35:41.542Z,3.12
2023-04-26T04:38:08.280Z,3.14
2023-04-26T04:40:34.937Z,3.21
2023-04-26T04:43:02.153Z,3.28
2023-04-26T04:45:28.893Z,3.46
2023-04-26T04:47:56.779Z,3.42
2023-04-26T04:50:24.332Z,3.54
2023-04-26T04:52:50.980Z,3.44
2023-04-26T04:55:17.712Z,3.65
2023-04-26T04:57:44.445Z,3.63
2023-04-26T05:00:14.805Z,3.77
2023-04-26T05:02:41.868Z,3.69
2023-04-26T05:05:09.751Z,3.96
2023-04-26T05:07:36.548Z,3.94
2023-04-26T05:10:04.604Z,3.97
2023-04-26T05:12:31.621Z,4.09
2023-04-26T05:14:58.237Z,4.14
2023-04-26T05:17:24.954Z,4.29
2023-04-26T05:19:51.535Z,4.38
2023-04-26T05:22:18.853Z,4.33
2023-04-26T05:24:46.980Z,4.38
2023-04-26T05:27:14.348Z,4.45
2023-04-26T05:29:41.541Z,4.40
2023-04-26T05:32:08.393Z,4.43
2023-04-26T05:34:35.514Z,4.67
2023-04-26T05:37:02.192Z,4.70
2023-04-26T05:39:28.846Z,4.91
2023-04-26T05:41:55.710Z,4.91
2023-04-26T05:44:22.303Z,5.04
2023-04-26T05:46:48.879Z,5.19
2023-04-26T05:49:16.054Z,5.08
2023-04-26T05:51:42.670Z,4.92
2023-04-26T05:54:09.240Z,5.12
2023-04-26T05:56:35.849Z,5.36
2023-04-26T05:59:02.505Z,5.14
2023-04-26T06:01:29.119Z,5.37
2023-04-26T06:03:59.054Z,5.62
2023-04-26T06:06:28.360Z,5.64
2023-04-26T06:08:55.554Z,5.74
2023-04-26T06:11:22.397Z,5.72
2023-04-26T06:13:48.981Z,5.85
2023-04-26T06:16:16.418Z,5.77
2023-04-26T06:18:43.642Z,6.03
2023-04-26T06:21:10.388Z,6.01
2023-04-26T06:23:37.021Z,6.11
2023-04-26T06:26:03.634Z,6.00
2023-04-26T06:28:30.240Z,6.38
2023-04-26T06:30:56.889Z,6.68
2023-04-26T06:33:23.572Z,6.53
2023-04-26T06:35:50.177Z,6.73
2023-04-26T06:38:16.789Z,6.50
2023-04-26T06:40:43.412Z,6.45
2023-04-26T06:43:09.975Z,6.72
2023-04-26T06:45:37.037Z,6.86
2023-04-26T06:48:04.896Z,6.80
2023-04-26T06:50:31.773Z,6.91
2023-04-26T06:52:58.418Z,7.08
2023-04-26T06:55:25.150Z,7.38
2023-04-26T06:57:51.929Z,7.05
2023-04-26T07:00:19.125Z,6.84
2023-04-26T07:02:46.089Z,7.07
2023-04-26T07:05:13.334Z,7.17
2023-04-26T07:07:40.039Z,7.18
2023-04-26T07:10:08.301Z,6.95
2023-04-26T07:12:35.226Z,7.10
2023-04-26T07:15:01.994Z,7.00
2023-04-26T07:17:28.637Z,6.86
2023-04-26T07:19:56.279Z,7.21
2023-04-26T07:22:22.996Z,7.63
2023-04-26T07:24:49.985Z,7.57
2023-04-26T07:27:16.629Z,7.34
2023-04-26T07:29:43.264Z,7.54
2023-04-26T07:32:09.987Z,7.77
2023-04-26T07:34:36.995Z,7.84
2023-04-26T07:37:04.537Z,8.38
2023-04-26T07:39:31.221Z,8.19
2023-04-26T07:41:57.865Z,8.35
2023-04-26T07:44:24.505Z,8.07
2023-04-26T07:46:51.657Z,7.87
2023-04-26T07:49:18.285Z,8.07
2023-04-26T07:51:45.685Z,8.74
2023-04-26T07:54:12.341Z,8.59
2023-04-26T07:56:38.989Z,8.52
2023-04-26T07:59:05.576Z,8.45
2023-04-26T08:01:32.323Z,9.07
2023-04-26T08:04:01.697Z,9.11
2023-04-26T08:06:29.348Z,8.78
2023-04-26T08:08:55.955Z,8.90
2023-04-26T08:11:22.687Z,9.23
2023-04-26T08:13:49.339Z,9.68
2023-04-26T08:16:16.080Z,8.95
2023-04-26T08:18:45.385Z,9.05
2023-04-26T08:21:13.474Z,9.07
2023-04-26T08:23:40.083Z,8.88
2023-04-26T08:26:07.336Z,8.83
2023-04-26T08:28:33.941Z,9.00
2023-04-26T08:31:00.577Z,9.02
2023-04-26T08:33:27.219Z,9.01
2023-04-26T08:35:53.862Z,8.53
2023-04-26T08:38:22.811Z,8.36
2023-04-26T08:40:51.410Z,9.05
2023-04-26T08:43:18.018Z,8.89
2023-04-26T08:45:49.219Z,9.22
2023-04-26T08:48:18.186Z,9.67
2023-04-26T08:50:46.719Z,9.99
2023-04-26T08:53:20.347Z,9.42
2023-04-26T08:55:50.714Z,8.96
2023-04-26T08:58:20.416Z,8.74
2023-04-26T09:00:47.191Z,9.29
2023-04-26T09:03:14.196Z,9.35
2023-04-26T09:05:44.398Z,9.18
2023-04-26T09:08:18.318Z,8.97
2023-04-26T09:10:45.542Z,9.43
2023-04-26T09:13:12.473Z,9.40
2023-04-26T09:15:39.669Z,9.55
2023-04-26T09:18:18.825Z,8.95
2023-04-26T09:20:46.277Z,9.58
2023-04-26T09:23:13.042Z,10.23
2023-04-26T09:25:39.917Z,10.13
2023-04-26T09:28:23.174Z,9.76
2023-04-26T09:30:49.874Z,9.73
2023-04-26T09:33:16.825Z,9.87
2023-04-26T09:35:44.200Z,9.84
2023-04-26T09:38:14.766Z,9.41
2023-04-26T09:40:49.878Z,9.47
2023-04-26T09:43:17.700Z,9.58
2023-04-26T09:45:56.265Z,10.46
2023-04-26T09:48:26.260Z,10.20
2023-04-26T09:50:55.688Z,9.69
2023-04-26T09:53:42.738Z,9.58
2023-04-26T09:56:14.471Z,9.13
2023-04-26T09:58:58.338Z,9.56
2023-04-26T10:01:28.331Z,9.89
2023-04-26T10:03:57.761Z,9.92
2023-04-26T10:06:25.223Z,10.03
2023-04-26T10:08:52.098Z,10.04
2023-04-26T10:11:19.118Z,9.74
2023-04-26T10:13:57.864Z,9.80
2023-04-26T10:16:30.196Z,9.86
2023-04-26T10:18:56.995Z,9.54
2023-04-26T10:21:31.629Z,9.46
2023-04-26T10:24:00.363Z,9.60
2023-04-26T10:26:50.418Z,9.68
2023-04-26T10:29:17.398Z,10.21
2023-04-26T10:32:02.840Z,10.67
2023-04-26T10:34:33.758Z,11.33
2023-04-26T10:37:26.921Z,11.83
2023-04-26T10:40:27.437Z,11.57
2023-04-26T10:43:09.990Z,11.65
2023-04-26T10:45:37.736Z,12.02
2023-04-26T10:48:22.489Z,11.72
2023-04-26T10:51:09.700Z,11.73
2023-04-26T10:53:45.926Z,10.89
2023-04-26T10:56:32.622Z,10.66
2023-04-26T10:59:33.355Z,10.31
2023-04-26T11:02:01.052Z,9.70
2023-04-26T11:04:51.272Z,9.59
2023-04-26T11:07:37.401Z,9.43
2023-04-26T11:10:07.991Z,9.58
2023-04-26T11:12:34.672Z,9.67
2023-04-26T11:15:01.275Z,9.83
2023-04-26T11:17:28.033Z,9.78
2023-04-26T11:19:54.906Z,9.81
2023-04-26T11:22:24.660Z,9.81
2023-04-26T11:24:51.780Z,10.36
2023-04-26T11:27:18.527Z,10.21
2023-04-26T11:29:45.127Z,9.85
2023-04-26T11:32:13.391Z,9.65
2023-04-26T11:34:40.885Z,9.60
2023-04-26T11:37:08.229Z,9.28
2023-04-26T11:39:36.330Z,9.24
2023-04-26T11:42:10.814Z,9.11
2023-04-26T11:44:41.610Z,9.13
2023-04-26T11:47:09.464Z,9.06
2023-04-26T11:49:37.900Z,9.20
2023-04-26T11:52:06.188Z,9.29
2023-04-26T11:54:34.625Z,9.40
2023-04-26T11:57:02.955Z,9.42
2023-04-26T11:59:30.962Z,9.57
2023-04-26T12:01:58.876Z,9.20
2023-04-26T12:04:31.932Z,9.66
2023-04-26T12:06:58.723Z,10.61
2023-04-26T12:09:28.356Z,11.14
2023-04-26T12:11:59.884Z,10.73
2023-04-26T12:14:40.565Z,10.68
2023-04-26T12:17:08.271Z,10.61
2023-04-26T12:19:39.571Z,10.21
2023-04-26T12:22:07.673Z,9.98
2023-04-26T12:24:36.999Z,9.69
2023-04-26T12:27:06.681Z,9.86
2023-04-26T12:29:33.811Z,9.49
2023-04-26T12:32:01.531Z,9.54
2023-04-26T12:34:28.496Z,9.73
2023-04-26T12:36:55.996Z,10.19
2023-04-26T12:39:22.977Z,10.86
2023-04-26T12:41:50.055Z,11.23
2023-04-26T12:44:17.282Z,11.20
2023-04-26T12:46:46.139Z,11.07
2023-04-26T12:49:14.226Z,10.41
2023-04-26T12:51:40.896Z,10.56
2023-04-26T12:54:07.838Z,11.02
2023-04-26T12:56:35.327Z,11.37
2023-04-26T12:59:02.175Z,11.57
2023-04-26T13:01:28.975Z,12.15
2023-04-26T13:03:56.876Z,12.00
2023-04-26T13:06:24.158Z,12.17
2023-04-26T13:08:50.936Z,12.40
2023-04-26T13:11:18.292Z,12.97
2023-04-26T13:13:45.293Z,12.86
2023-04-26T13:16:13.250Z,12.86
2023-04-26T13:18:41.215Z,12.21
2023-04-26T13:21:08.193Z,11.80
2023-04-26T13:23:34.909Z,12.40
2023-04-26T13:26:01.775Z,12.32
2023-04-26T13:28:28.678Z,12.03
2023-04-26T13:30:56.136Z,11.20
2023-04-26T13:33:23.289Z,11.57
2023-04-26T13:35:50.062Z,11.14
2023-04-26T13:38:17.605Z,10.86
2023-04-26T13:40:45.001Z,10.70
2023-04-26T13:43:11.636Z,10.69
2023-04-26T13:45:38.888Z,10.85
2023-04-26T13:48:06.015Z,10.57
2023-04-26T13:50:32.812Z,11.02
2023-04-26T13:53:00.283Z,10.94
2023-04-26T13:55:27.015Z,10.70
2023-04-26T13:57:53.918Z,10.33
2023-04-26T14:00:21.172Z,10.05
2023-04-26T14:02:48.594Z,10.11
2023-04-26T14:05:17.781Z,10.50
2023-04-26T14:07:44.793Z,10.80
2023-04-26T14:10:12.538Z,10.50
2023-04-26T14:12:39.905Z,10.39
2023-04-26T14:15:07.453Z,10.32
2023-04-26T14:17:34.227Z,10.09
2023-04-26T14:20:01.624Z,10.06
2023-04-26T14:22:28.347Z,10.24
2023-04-26T14:24:55.498Z,10.41
2023-04-26T14:27:22.298Z,10.77
2023-04-26T14:29:48.925Z,10.98
2023-04-26T14:32:15.650Z,10.98
2023-04-26T14:34:43.024Z,11.19
2023-04-26T14:37:10.487Z,11.47
2023-04-26T14:39:37.368Z,11.54
2023-04-26T14:42:04.381Z,11.61
2023-04-26T14:44:31.085Z,11.27
2023-04-26T14:46:57.794Z,10.89
2023-04-26T14:49:24.504Z,11.03
2023-04-26T14:51:53.473Z,11.31
2023-04-26T14:54:21.201Z,11.72
2023-04-26T14:56:48.852Z,12.05
2023-04-26T14:59:16.318Z,12.29
2023-04-26T15:01:43.187Z,11.92
2023-04-26T15:04:10.275Z,11.78
2023-04-26T15:06:37.373Z,11.63
2023-04-26T15:09:04.691Z,11.49
2023-04-26T15:11:31.677Z,11.12
2023-04-26T15:13:58.426Z,10.83
2023-04-26T15:16:25.185Z,10.87
2023-04-26T15:18:52.038Z,10.95
2023-04-26T15:21:22.233Z,10.95
2023-04-26T15:23:48.842Z,11.15
2023-04-26T15:26:15.520Z,11.21
2023-04-26T15:28:42.366Z,11.52
2023-04-26T15:31:10.305Z,11.30
2023-04-26T15:33:37.062Z,11.06
2023-04-26T15:36:03.970Z,11.00
2023-04-26T15:38:31.107Z,11.16
2023-04-26T15:40:57.760Z,11.33
2023-04-26T15:43:24.390Z,11.38
2023-04-26T15:45:51.661Z,11.45
2023-04-26T15:48:18.440Z,11.30
2023-04-26T15:50:45.622Z,10.83
2023-04-26T15:53:12.316Z,10.87
2023-04-26T15:55:39.081Z,10.73
2023-04-26T15:58:05.911Z,10.56
2023-04-26T16:00:34.026Z,10.31
2023-04-26T16:03:04.478Z,10.68
2023-04-26T16:05:32.887Z,11.28
2023-04-26T16:08:03.858Z,11.73
2023-04-26T16:10:30.580Z,12.54
2023-04-26T16:12:57.352Z,12.09
2023-04-26T16:15:26.508Z,11.53
2023-04-26T16:17:53.184Z,11.12
2023-04-26T16:20:22.023Z,10.74
2023-04-26T16:22:49.967Z,10.30
2023-04-26T16:25:17.456Z,10.17
2023-04-26T16:27:44.667Z,9.87
2023-04-26T16:30:11.597Z,9.60
2023-04-26T16:32:38.249Z,9.76
2023-04-26T16:35:05.589Z,10.05
2023-04-26T16:37:32.292Z,10.51
2023-04-26T16:39:59.119Z,10.75
2023-04-26T16:42:26.448Z,10.58
2023-04-26T16:44:55.879Z,10.31
2023-04-26T16:47:22.557Z,10.21
2023-04-26T16:49:49.725Z,10.19
2023-04-26T16:52:24.855Z,10.05
2023-04-26T16:54:51.568Z,10.04
2023-04-26T16:57:18.957Z,10.03
2023-04-26T16:59:46.408Z,9.79
2023-04-26T17:02:13.954Z,9.29
2023-04-26T17:04:41.395Z,9.46
2023-04-26T17:07:08.325Z,9.40
2023-04-26T17:09:35.970Z,9.42
2023-04-26T17:12:04.445Z,9.57
2023-04-26T17:14:32.452Z,9.41
2023-04-26T17:16:59.208Z,9.43
2023-04-26T17:19:26.004Z,9.40
2023-04-26T17:21:52.817Z,9.39
2023-04-26T17:24:19.611Z,9.37
2023-04-26T17:26:46.891Z,9.54
2023-04-26T17:29:14.214Z,9.35
2023-04-26T17:31:41.012Z,9.18
2023-04-26T17:34:07.623Z,8.96
2023-04-26T17:36:34.227Z,9.16
2023-04-26T17:39:01.382Z,8.99
2023-04-26T17:41:28.116Z,8.88
2023-04-26T17:43:55.120Z,8.86
2023-04-26T17:46:21.974Z,8.82
2023-04-26T17:48:50.293Z,8.85
2023-04-26T17:51:26.550Z,8.84
2023-04-26T17:53:53.286Z,8.58
2023-04-26T17:56:20.070Z,8.53
2023-04-26T17:58:46.786Z,8.50
2023-04-26T18:01:13.699Z,8.44
2023-04-26T18:03:41.387Z,8.33
2023-04-26T18:06:08.082Z,8.10
2023-04-26T18:08:34.830Z,8.03
2023-04-26T18:11:01.435Z,8.06
2023-04-26T18:13:28.386Z,7.84
2023-04-26T18:15:55.933Z,7.92
2023-04-26T18:18:23.718Z,7.71
2023-04-26T18:20:51.781Z,7.69
2023-04-26T18:23:18.679Z,7.44
2023-04-26T18:25:45.825Z,7.31
2023-04-26T18:28:12.689Z,7.17
2023-04-26T18:30:40.895Z,7.15
2023-04-26T18:33:08.376Z,7.13
2023-04-26T18:35:36.143Z,7.08
2023-04-26T18:38:02.816Z,7.01
2023-04-26T18:40:29.893Z,6.94
2023-04-26T18:42:56.585Z,6.93
2023-04-26T18:45:23.249Z,6.87
2023-04-26T18:47:50.001Z,6.85
2023-04-26T18:50:16.826Z,6.80
2023-04-26T18:52:43.429Z,6.79
2023-04-26T18:55:10.816Z,6.81
2023-04-26T18:57:37.777Z,6.88
2023-04-26T19:00:06.828Z,6.87
2023-04-26T19:02:36.490Z,6.94
2023-04-26T19:05:04.674Z,6.96
2023-04-26T19:07:31.819Z,7.00
2023-04-26T19:10:00.994Z,7.02
2023-04-26T19:12:27.947Z,6.96
2023-04-26T19:14:54.735Z,7.06
2023-04-26T19:17:21.454Z,7.16
2023-04-26T19:19:51.723Z,7.21
2023-04-26T19:22:19.082Z,7.14
2023-04-26T19:24:50.191Z,7.11
2023-04-26T19:27:17.603Z,7.04
2023-04-26T19:29:44.323Z,7.04
2023-04-26T19:32:11.207Z,6.97
2023-04-26T19:34:38.908Z,6.99
2023-04-26T19:37:05.890Z,6.97
2023-04-26T19:39:38.032Z,7.10
2023-04-26T19:42:04.830Z,7.18
2023-04-26T19:44:33.652Z,7.06
2023-04-26T19:47:00.452Z,7.06
2023-04-26T19:49:29.010Z,7.04
2023-04-26T19:51:55.957Z,7.03
2023-04-26T19:54:23.516Z,7.00
2023-04-26T19:56:50.320Z,7.06
2023-04-26T19:59:16.948Z,7.10
2023-04-26T20:01:43.592Z,7.05
2023-04-26T20:04:10.318Z,7.02
2023-04-26T20:06:36.950Z,7.00
2023-04-26T20:11:45.038Z,6.95
2023-04-26T20:14:12.025Z,6.97
2023-04-26T20:16:39.048Z,6.84
2023-04-26T20:19:06.153Z,6.88
2023-04-26T20:21:33.342Z,6.82
2023-04-26T20:24:00.028Z,6.77
2023-04-26T20:26:26.841Z,6.68
2023-04-26T20:28:53.441Z,6.69
2023-04-26T20:31:20.084Z,6.73
2023-04-26T20:33:46.662Z,6.68
2023-04-26T20:36:14.501Z,6.61
2023-04-26T20:38:41.774Z,6.60
2023-04-26T20:41:08.347Z,6.56
2023-04-26T20:43:35.390Z,6.56
2023-04-26T20:46:02.268Z,6.59
2023-04-26T20:48:29.201Z,6.58
2023-04-26T20:50:57.102Z,6.56
2023-04-26T20:53:23.835Z,6.52
2023-04-26T20:55:53.760Z,6.55
2023-04-26T20:58:20.841Z,6.47
2023-04-26T21:00:51.900Z,6.41
2023-04-26T21:03:18.775Z,6.34
2023-04-26T21:05:45.741Z,6.28
2023-04-26T21:08:12.553Z,6.22
2023-04-26T21:10:39.225Z,6.21
2023-04-26T21:13:06.198Z,6.26
2023-04-26T21:15:33.646Z,6.27
2023-04-26T21:18:00.261Z,6.25
2023-04-26T21:20:27.165Z,6.27
2023-04-26T21:22:53.962Z,6.30
2023-04-26T21:25:20.723Z,6.41
2023-04-26T21:27:47.663Z,6.70
2023-04-26T21:30:14.685Z,6.57
2023-04-26T21:32:42.042Z,6.57
2023-04-26T21:35:10.497Z,6.67
2023-04-26T21:37:37.973Z,6.73
2023-04-26T21:40:05.192Z,6.57
2023-04-26T21:42:31.790Z,6.59
2023-04-26T21:45:01.566Z,6.72
2023-04-26T21:47:28.297Z,6.75
2023-04-26T21:49:55.017Z,6.73
2023-04-26T21:52:22.181Z,6.80
2023-04-26T21:54:49.770Z,6.68
2023-04-26T21:57:20.218Z,6.74
2023-04-26T21:59:46.996Z,6.86
2023-04-26T22:02:13.898Z,6.75
2023-04-26T22:04:40.838Z,6.76
2023-04-26T22:07:07.894Z,6.77
2023-04-26T22:09:34.808Z,6.98
2023-04-26T22:12:02.739Z,6.91
2023-04-26T22:14:29.507Z,6.89
2023-04-26T22:16:56.536Z,6.80
2023-04-26T22:19:23.453Z,6.93
2023-04-26T22:21:50.502Z,6.93
2023-04-26T22:24:17.127Z,6.96
2023-04-26T22:26:44.135Z,6.97
2023-04-26T22:29:12.374Z,7.01
2023-04-26T22:31:39.451Z,6.86
2023-04-26T22:34:06.031Z,6.84
2023-04-26T22:36:33.164Z,6.80
2023-04-26T22:39:00.468Z,6.93
2023-04-26T22:41:27.252Z,6.94
2023-04-26T22:43:54.178Z,6.93
2023-04-26T22:46:21.274Z,6.84
2023-04-26T22:48:48.092Z,6.89
2023-04-26T22:51:14.816Z,6.76
2023-04-26T22:53:41.743Z,6.78
2023-04-26T22:56:08.629Z,6.81
2023-04-26T22:58:35.501Z,6.80
2023-04-26T23:01:02.516Z,6.73
2023-04-26T23:03:29.627Z,6.79
2023-04-26T23:05:56.582Z,6.78
2023-04-26T23:08:23.474Z,6.78
2023-04-26T23:10:50.155Z,6.65
2023-04-26T23:13:16.937Z,6.71
2023-04-26T23:15:43.791Z,6.68
2023-04-26T23:18:10.655Z,6.64
2023-04-26T23:20:37.411Z,6.65
2023-04-26T23:23:04.061Z,6.57
2023-04-26T23:25:31.090Z,6.69
2023-04-26T23:27:58.232Z,6.60
2023-04-26T23:30:24.827Z,6.72
2023-04-26T23:32:51.637Z,6.63
2023-04-26T23:35:18.657Z,6.60
2023-04-26T23:37:45.255Z,6.72
2023-04-26T23:40:12.413Z,6.64
2023-04-26T23:42:39.289Z,6.61
2023-04-26T23:45:07.908Z,6.68
2023-04-26T23:47:34.698Z,6.54
2023-04-26T23:50:01.477Z,6.62
2023-04-26T23:52:28.321Z,6.70
2023-04-26T23:54:55.112Z,6.65
2023-04-26T23:57:22.431Z,6.66
2023-04-26T23:59:49.205Z,6.56
